sensor_id;sensor_type;location;lat;lon;timestamp;pressure;altitude;pressure_sealevel;temperature;humidity
63552;BME280;49698;48.072;7.800;2022-12-07T00:01:19;99582.06;;;3.71;91.01
63552;BME280;49698;48.072;7.800;2022-12-07T00:03:48;99585.31;;;3.73;90.94
63552;BME280;49698;48.072;7.800;2022-12-07T00:06:18;99571.78;;;3.74;90.82
63552;BME280;49698;48.072;7.800;2022-12-07T00:08:46;99576.88;;;3.76;90.73
63552;BME280;49698;48.072;7.800;2022-12-07T00:11:16;99575.03;;;3.76;90.77
63552;BME280;49698;48.072;7.800;2022-12-07T00:13:45;99568.91;;;3.76;90.75
63552;BME280;49698;48.072;7.800;2022-12-07T00:16:16;99567.84;;;3.77;90.79
63552;BME280;49698;48.072;7.800;2022-12-07T00:18:45;99575.59;;;3.78;90.70
63552;BME280;49698;48.072;7.800;2022-12-07T00:21:15;99564.94;;;3.78;90.86
63552;BME280;49698;48.072;7.800;2022-12-07T00:23:45;99566.00;;;3.77;90.79
63552;BME280;49698;48.072;7.800;2022-12-07T00:26:15;99566.81;;;3.78;90.71
63552;BME280;49698;48.072;7.800;2022-12-07T00:28:45;99562.28;;;3.78;90.84
63552;BME280;49698;48.072;7.800;2022-12-07T00:31:16;99563.09;;;3.79;90.65
63552;BME280;49698;48.072;7.800;2022-12-07T00:33:44;99557.78;;;3.79;90.70
63552;BME280;49698;48.072;7.800;2022-12-07T00:36:14;99551.44;;;3.80;90.61
63552;BME280;49698;48.072;7.800;2022-12-07T00:38:44;99551.19;;;3.81;90.47
63552;BME280;49698;48.072;7.800;2022-12-07T00:41:14;99546.47;;;3.83;90.51
63552;BME280;49698;48.072;7.800;2022-12-07T00:43:44;99548.06;;;3.84;90.66
63552;BME280;49698;48.072;7.800;2022-12-07T00:46:15;99548.88;;;3.85;90.22
63552;BME280;49698;48.072;7.800;2022-12-07T00:48:43;99543.56;;;3.85;90.43
63552;BME280;49698;48.072;7.800;2022-12-07T00:51:12;99541.94;;;3.84;90.49
63552;BME280;49698;48.072;7.800;2022-12-07T00:53:41;99544.03;;;3.82;90.66
63552;BME280;49698;48.072;7.800;2022-12-07T00:56:12;99545.88;;;3.81;90.41
63552;BME280;49698;48.072;7.800;2022-12-07T00:58:40;99545.88;;;3.81;90.60
63552;BME280;49698;48.072;7.800;2022-12-07T01:01:09;99547.72;;;3.81;90.52
63552;BME280;49698;48.072;7.800;2022-12-07T01:03:39;99546.13;;;3.80;90.64
63552;BME280;49698;48.072;7.800;2022-12-07T01:06:07;99541.34;;;3.82;90.67
63552;BME280;49698;48.072;7.800;2022-12-07T01:08:35;99550.94;;;3.83;90.63
63552;BME280;49698;48.072;7.800;2022-12-07T01:11:05;99547.47;;;3.82;90.66
63552;BME280;49698;48.072;7.800;2022-12-07T01:13:35;99545.06;;;3.81;90.60
63552;BME280;49698;48.072;7.800;2022-12-07T01:16:05;99539.75;;;3.81;90.66
63552;BME280;49698;48.072;7.800;2022-12-07T01:18:35;99545.06;;;3.81;90.83
63552;BME280;49698;48.072;7.800;2022-12-07T01:21:06;99550.38;;;3.81;90.81
63552;BME280;49698;48.072;7.800;2022-12-07T01:23:35;99549.81;;;3.79;90.97
63552;BME280;49698;48.072;7.800;2022-12-07T01:26:05;99555.38;;;3.77;91.00
63552;BME280;49698;48.072;7.800;2022-12-07T01:28:33;99554.22;;;3.73;91.20
63552;BME280;49698;48.072;7.800;2022-12-07T01:31:03;99552.81;;;3.71;91.43
63552;BME280;49698;48.072;7.800;2022-12-07T01:33:33;99555.94;;;3.67;91.56
63552;BME280;49698;48.072;7.800;2022-12-07T01:36:02;99558.03;;;3.65;91.72
63552;BME280;49698;48.072;7.800;2022-12-07T01:38:32;99563.34;;;3.65;91.79
63552;BME280;49698;48.072;7.800;2022-12-07T01:41:01;99559.66;;;3.66;91.88
63552;BME280;49698;48.072;7.800;2022-12-07T01:43:32;99566.00;;;3.65;92.24
63552;BME280;49698;48.072;7.800;2022-12-07T01:46:01;99566.00;;;3.65;92.33
63552;BME280;49698;48.072;7.800;2022-12-07T01:48:32;99572.94;;;3.66;92.28
63552;BME280;49698;48.072;7.800;2022-12-07T01:51:06;99572.38;;;3.64;92.42
63552;BME280;49698;48.072;7.800;2022-12-07T01:53:40;99584.28;;;3.62;92.83
63552;BME280;49698;48.072;7.800;2022-12-07T01:56:18;99576.19;;;3.57;93.04
63552;BME280;49698;48.072;7.800;2022-12-07T01:58:48;99576.31;;;3.50;93.49
63552;BME280;49698;48.072;7.800;2022-12-07T02:01:17;99580.47;;;3.46;93.81
63552;BME280;49698;48.072;7.800;2022-12-07T02:03:45;99576.41;;;3.43;94.16
63552;BME280;49698;48.072;7.800;2022-12-07T02:06:23;99583.59;;;3.43;94.38
63552;BME280;49698;48.072;7.800;2022-12-07T02:08:53;99576.41;;;3.43;94.56
63552;BME280;49698;48.072;7.800;2022-12-07T02:11:22;99581.53;;;3.45;94.69
63552;BME280;49698;48.072;7.800;2022-12-07T02:14:00;99583.13;;;3.46;94.75
63552;BME280;49698;48.072;7.800;2022-12-07T02:16:46;99574.34;;;3.46;95.17
63552;BME280;49698;48.072;7.800;2022-12-07T02:22:42;99576.06;;;3.40;95.52
63552;BME280;49698;48.072;7.800;2022-12-07T02:25:30;99574.00;;;3.42;95.46
63552;BME280;49698;48.072;7.800;2022-12-07T02:28:05;99570.31;;;3.43;95.45
63552;BME280;49698;48.072;7.800;2022-12-07T02:30:40;99567.09;;;3.41;95.61
63552;BME280;49698;48.072;7.800;2022-12-07T02:33:14;99564.63;;;3.39;95.89
63552;BME280;49698;48.072;7.800;2022-12-07T02:35:48;99558.28;;;3.40;95.75
63552;BME280;49698;48.072;7.800;2022-12-07T02:38:20;99563.38;;;3.42;95.99
63552;BME280;49698;48.072;7.800;2022-12-07T02:40:52;99560.72;;;3.42;95.85
63552;BME280;49698;48.072;7.800;2022-12-07T02:43:24;99563.94;;;3.44;95.80
63552;BME280;49698;48.072;7.800;2022-12-07T02:45:58;99566.13;;;3.47;95.71
63552;BME280;49698;48.072;7.800;2022-12-07T02:48:28;99562.44;;;3.48;95.81
63552;BME280;49698;48.072;7.800;2022-12-07T02:50:56;99569.38;;;3.49;95.45
63552;BME280;49698;48.072;7.800;2022-12-07T02:53:31;99564.28;;;3.48;95.50
63552;BME280;49698;48.072;7.800;2022-12-07T02:56:05;99569.38;;;3.49;95.78
63552;BME280;49698;48.072;7.800;2022-12-07T02:58:41;99568.59;;;3.49;95.60
63552;BME280;49698;48.072;7.800;2022-12-07T03:01:22;99564.06;;;3.49;95.80
63552;BME280;49698;48.072;7.800;2022-12-07T03:03:58;99569.38;;;3.49;95.79
63552;BME280;49698;48.072;7.800;2022-12-07T03:06:32;99563.47;;;3.47;95.68
63552;BME280;49698;48.072;7.800;2022-12-07T03:09:11;99557.13;;;3.48;95.68
63552;BME280;49698;48.072;7.800;2022-12-07T03:11:44;99558.75;;;3.49;95.72
63552;BME280;49698;48.072;7.800;2022-12-07T03:14:17;99558.75;;;3.49;95.67
63552;BME280;49698;48.072;7.800;2022-12-07T03:16:52;99565.69;;;3.50;95.80
63552;BME280;49698;48.072;7.800;2022-12-07T03:19:24;99564.63;;;3.51;95.48
63552;BME280;49698;48.072;7.800;2022-12-07T03:21:56;99559.56;;;3.50;95.80
63552;BME280;49698;48.072;7.800;2022-12-07T03:24:27;99552.63;;;3.49;95.59
63552;BME280;49698;48.072;7.800;2022-12-07T03:27:01;99557.13;;;3.48;95.67
63552;BME280;49698;48.072;7.800;2022-12-07T03:29:34;99558.75;;;3.49;95.66
63552;BME280;49698;48.072;7.800;2022-12-07T03:32:08;99551.59;;;3.50;95.58
63552;BME280;49698;48.072;7.800;2022-12-07T03:34:46;99558.75;;;3.49;95.62
63552;BME280;49698;48.072;7.800;2022-12-07T03:37:18;99553.66;;;3.48;95.53
63552;BME280;49698;48.072;7.800;2022-12-07T03:39:54;99552.84;;;3.47;95.69
63552;BME280;49698;48.072;7.800;2022-12-07T03:42:25;99549.38;;;3.47;95.63
63552;BME280;49698;48.072;7.800;2022-12-07T03:44:53;99541.41;;;3.47;95.95
63552;BME280;49698;48.072;7.800;2022-12-07T03:47:27;99540.63;;;3.46;95.51
63552;BME280;49698;48.072;7.800;2022-12-07T03:50:02;99532.06;;;3.44;95.69
63552;BME280;49698;48.072;7.800;2022-12-07T03:52:38;99536.00;;;3.41;95.83
63552;BME280;49698;48.072;7.800;2022-12-07T03:55:11;99536.00;;;3.41;95.95
63552;BME280;49698;48.072;7.800;2022-12-07T03:57:42;99535.19;;;3.41;95.91
63552;BME280;49698;48.072;7.800;2022-12-07T04:00:12;99537.03;;;3.40;95.82
63552;BME280;49698;48.072;7.800;2022-12-07T04:02:42;99545.00;;;3.40;95.83
63552;BME280;49698;48.072;7.800;2022-12-07T04:05:11;99542.56;;;3.39;95.75
63552;BME280;49698;48.072;7.800;2022-12-07T04:07:40;99537.25;;;3.39;95.87
63552;BME280;49698;48.072;7.800;2022-12-07T04:10:09;99531.94;;;3.39;95.93
63552;BME280;49698;48.072;7.800;2022-12-07T04:12:37;99534.59;;;3.39;95.73
63552;BME280;49698;48.072;7.800;2022-12-07T04:15:07;99526.63;;;3.39;95.88
63552;BME280;49698;48.072;7.800;2022-12-07T04:17:35;99529.53;;;3.37;95.89
63552;BME280;49698;48.072;7.800;2022-12-07T04:20:07;99533.81;;;3.38;95.86
63552;BME280;49698;48.072;7.800;2022-12-07T04:22:35;99528.72;;;3.37;96.08
63552;BME280;49698;48.072;7.800;2022-12-07T04:25:03;99526.06;;;3.37;95.75
63552;BME280;49698;48.072;7.800;2022-12-07T04:27:32;99528.72;;;3.37;95.74
63552;BME280;49698;48.072;7.800;2022-12-07T04:30:00;99516.47;;;3.36;95.81
63552;BME280;49698;48.072;7.800;2022-12-07T04:32:29;99520.19;;;3.35;95.99
63552;BME280;49698;48.072;7.800;2022-12-07T04:34:57;99523.88;;;3.34;95.85
63552;BME280;49698;48.072;7.800;2022-12-07T04:37:26;99519.28;;;3.29;95.88
63552;BME280;49698;48.072;7.800;2022-12-07T04:39:54;99521.09;;;3.29;96.22
63552;BME280;49698;48.072;7.800;2022-12-07T04:42:22;99524.78;;;3.28;96.06
63552;BME280;49698;48.072;7.800;2022-12-07T04:44:50;99525.84;;;3.27;96.12
63552;BME280;49698;48.072;7.800;2022-12-07T04:47:18;99522.84;;;3.23;96.12
63552;BME280;49698;48.072;7.800;2022-12-07T04:49:46;99521.44;;;3.21;96.33
63552;BME280;49698;48.072;7.800;2022-12-07T04:52:14;99522.50;;;3.19;96.58
63552;BME280;49698;48.072;7.800;2022-12-07T04:54:44;99517.63;;;3.16;96.38
63552;BME280;49698;48.072;7.800;2022-12-07T04:57:11;99526.66;;;3.15;96.71
63552;BME280;49698;48.072;7.800;2022-12-07T04:59:39;99523.19;;;3.15;96.65
63552;BME280;49698;48.072;7.800;2022-12-07T05:02:10;99528.72;;;3.13;96.84
63552;BME280;49698;48.072;7.800;2022-12-07T05:04:38;99532.41;;;3.12;96.68
63552;BME280;49698;48.072;7.800;2022-12-07T05:07:06;99529.75;;;3.12;96.58
63552;BME280;49698;48.072;7.800;2022-12-07T05:09:34;99520.19;;;3.11;96.65
63552;BME280;49698;48.072;7.800;2022-12-07T05:12:04;99527.56;;;3.09;96.56
63552;BME280;49698;48.072;7.800;2022-12-07T05:14:32;99519.84;;;3.08;96.72
63552;BME280;49698;48.072;7.800;2022-12-07T05:16:59;99524.78;;;3.04;96.80
63552;BME280;49698;48.072;7.800;2022-12-07T05:19:28;99514.41;;;3.03;96.89
63552;BME280;49698;48.072;7.800;2022-12-07T05:21:56;99528.50;;;3.03;96.95
63552;BME280;49698;48.072;7.800;2022-12-07T05:24:23;99525.84;;;3.03;97.12
63552;BME280;49698;48.072;7.800;2022-12-07T05:26:51;99522.38;;;3.03;97.21
63552;BME280;49698;48.072;7.800;2022-12-07T05:29:21;99516.81;;;3.04;97.04
63552;BME280;49698;48.072;7.800;2022-12-07T05:31:49;99516.81;;;3.04;97.00
63552;BME280;49698;48.072;7.800;2022-12-07T05:34:17;99520.28;;;3.05;97.02
63552;BME280;49698;48.072;7.800;2022-12-07T05:36:45;99515.78;;;3.05;97.05
63552;BME280;49698;48.072;7.800;2022-12-07T05:39:13;99514.16;;;3.04;96.89
63552;BME280;49698;48.072;7.800;2022-12-07T05:41:41;99511.50;;;3.04;97.04
63552;BME280;49698;48.072;7.800;2022-12-07T05:44:28;99510.94;;;3.02;96.97
63552;BME280;49698;48.072;7.800;2022-12-07T05:46:56;99509.31;;;3.01;96.90
63552;BME280;49698;48.072;7.800;2022-12-07T05:49:24;99514.63;;;3.01;97.03
63552;BME280;49698;48.072;7.800;2022-12-07T05:51:52;99515.66;;;3.00;96.95
63552;BME280;49698;48.072;7.800;2022-12-07T05:54:20;99517.97;;;2.97;97.27
63552;BME280;49698;48.072;7.800;2022-12-07T05:56:48;99522.94;;;2.93;97.17
63552;BME280;49698;48.072;7.800;2022-12-07T05:59:16;99522.47;;;2.84;97.55
63552;BME280;49698;48.072;7.800;2022-12-07T06:01:51;99510.22;;;2.72;97.43
63552;BME280;49698;48.072;7.800;2022-12-07T06:04:19;99511.22;;;2.59;97.60
63552;BME280;49698;48.072;7.800;2022-12-07T06:06:48;99515.00;;;2.51;97.86
63552;BME280;49698;48.072;7.800;2022-12-07T06:09:16;99513.84;;;2.47;98.10
63552;BME280;49698;48.072;7.800;2022-12-07T06:11:45;99513.50;;;2.43;98.62
63552;BME280;49698;48.072;7.800;2022-12-07T06:14:30;99515.22;;;2.38;98.38
63552;BME280;49698;48.072;7.800;2022-12-07T06:17:00;99520.97;;;2.35;98.61
63552;BME280;49698;48.072;7.800;2022-12-07T06:19:28;99522.22;;;2.32;98.37
63552;BME280;49698;48.072;7.800;2022-12-07T06:21:56;99516.22;;;2.25;98.24
63552;BME280;49698;48.072;7.800;2022-12-07T06:24:25;99518.47;;;2.10;98.44
63552;BME280;49698;48.072;7.800;2022-12-07T06:26:53;99524.72;;;1.97;98.61
63552;BME280;49698;48.072;7.800;2022-12-07T06:29:21;99527.13;;;1.87;98.98
63552;BME280;49698;48.072;7.800;2022-12-07T06:31:49;99527.88;;;1.76;98.95
63552;BME280;49698;48.072;7.800;2022-12-07T06:34:19;99529.16;;;1.66;99.22
63552;BME280;49698;48.072;7.800;2022-12-07T06:36:49;99529.03;;;1.61;99.11
63552;BME280;49698;48.072;7.800;2022-12-07T06:39:21;99530.50;;;1.57;99.37
63552;BME280;49698;48.072;7.800;2022-12-07T06:41:50;99530.94;;;1.54;99.42
63552;BME280;49698;48.072;7.800;2022-12-07T06:44:20;99538.31;;;1.52;99.60
63552;BME280;49698;48.072;7.800;2022-12-07T06:46:48;99536.72;;;1.51;99.26
63552;BME280;49698;48.072;7.800;2022-12-07T06:49:17;99534.25;;;1.50;99.23
63552;BME280;49698;48.072;7.800;2022-12-07T06:51:46;99537.13;;;1.48;99.45
63552;BME280;49698;48.072;7.800;2022-12-07T06:54:16;99540.00;;;1.46;99.50
63552;BME280;49698;48.072;7.800;2022-12-07T06:56:45;99540.44;;;1.43;99.48
63552;BME280;49698;48.072;7.800;2022-12-07T06:59:46;99538.44;;;1.39;99.39
63552;BME280;49698;48.072;7.800;2022-12-07T07:02:14;99545.19;;;1.35;99.35
63552;BME280;49698;48.072;7.800;2022-12-07T07:04:42;99545.06;;;1.30;99.48
63552;BME280;49698;48.072;7.800;2022-12-07T07:07:11;99541.09;;;1.20;99.35
63552;BME280;49698;48.072;7.800;2022-12-07T07:09:39;99546.06;;;1.10;99.31
63552;BME280;49698;48.072;7.800;2022-12-07T07:12:09;99548.38;;;1.00;99.60
63552;BME280;49698;48.072;7.800;2022-12-07T07:14:39;99553.94;;;0.92;99.67
63552;BME280;49698;48.072;7.800;2022-12-07T07:17:07;99554.22;;;0.84;100.00
63552;BME280;49698;48.072;7.800;2022-12-07T07:19:35;99555.66;;;0.80;99.72
63552;BME280;49698;48.072;7.800;2022-12-07T07:22:03;99552.88;;;0.75;99.88
63552;BME280;49698;48.072;7.800;2022-12-07T07:24:33;99563.63;;;0.73;99.76
63552;BME280;49698;48.072;7.800;2022-12-07T07:27:01;99568.72;;;0.75;99.93
63552;BME280;49698;48.072;7.800;2022-12-07T07:29:29;99562.41;;;0.76;99.73
63552;BME280;49698;48.072;7.800;2022-12-07T07:31:57;99573.59;;;0.78;99.68
63552;BME280;49698;48.072;7.800;2022-12-07T07:34:29;99579.06;;;0.83;99.98
63552;BME280;49698;48.072;7.800;2022-12-07T07:36:56;99582.09;;;0.86;99.78
63552;BME280;49698;48.072;7.800;2022-12-07T07:39:25;99584.88;;;0.91;99.62
63552;BME280;49698;48.072;7.800;2022-12-07T07:41:54;99578.38;;;0.94;99.13
63552;BME280;49698;48.072;7.800;2022-12-07T07:44:25;99589.75;;;0.94;98.95
63552;BME280;49698;48.072;7.800;2022-12-07T07:46:57;99594.78;;;1.03;99.24
63552;BME280;49698;48.072;7.800;2022-12-07T07:49:25;99594.31;;;1.12;98.82
63552;BME280;49698;48.072;7.800;2022-12-07T07:51:53;99594.63;;;1.22;98.22
63552;BME280;49698;48.072;7.800;2022-12-07T07:54:21;99594.72;;;1.34;97.89
63552;BME280;49698;48.072;7.800;2022-12-07T07:56:49;99588.47;;;1.47;97.32
63552;BME280;49698;48.072;7.800;2022-12-07T07:59:18;99589.16;;;1.61;97.37
63552;BME280;49698;48.072;7.800;2022-12-07T08:01:46;99593.53;;;2.10;97.14
63552;BME280;49698;48.072;7.800;2022-12-07T08:04:14;99586.34;;;3.25;93.61
63552;BME280;49698;48.072;7.800;2022-12-07T08:06:42;99593.09;;;4.72;87.65
63552;BME280;49698;48.072;7.800;2022-12-07T08:09:10;99585.25;;;6.05;82.14
63552;BME280;49698;48.072;7.800;2022-12-07T08:11:38;99588.69;;;7.08;78.70
63552;BME280;49698;48.072;7.800;2022-12-07T08:14:06;99596.19;;;7.44;76.10
63552;BME280;49698;48.072;7.800;2022-12-07T08:16:37;99595.31;;;7.33;76.20
63552;BME280;49698;48.072;7.800;2022-12-07T08:19:05;99591.31;;;6.98;76.54
63552;BME280;49698;48.072;7.800;2022-12-07T08:21:33;99596.03;;;6.37;78.27
63552;BME280;49698;48.072;7.800;2022-12-07T08:24:01;99590.81;;;5.81;80.00
63552;BME280;49698;48.072;7.800;2022-12-07T08:26:29;99601.88;;;5.34;81.62
63552;BME280;49698;48.072;7.800;2022-12-07T08:28:57;99596.66;;;4.94;82.87
63552;BME280;49698;48.072;7.800;2022-12-07T08:31:25;99601.38;;;4.58;84.15
63552;BME280;49698;48.072;7.800;2022-12-07T08:33:55;99601.03;;;4.26;85.04
63552;BME280;49698;48.072;7.800;2022-12-07T08:36:24;99602.38;;;4.00;86.00
63552;BME280;49698;48.072;7.800;2022-12-07T08:38:52;99597.66;;;3.79;86.59
63552;BME280;49698;48.072;7.800;2022-12-07T08:41:40;99591.91;;;3.58;87.14
63552;BME280;49698;48.072;7.800;2022-12-07T08:44:08;99592.59;;;3.42;87.68
63552;BME280;49698;48.072;7.800;2022-12-07T08:46:38;99597.91;;;3.30;88.22
63552;BME280;49698;48.072;7.800;2022-12-07T08:49:16;99593.63;;;3.17;88.68
63552;BME280;49698;48.072;7.800;2022-12-07T08:51:45;99594.09;;;3.14;89.02
63552;BME280;49698;48.072;7.800;2022-12-07T08:54:15;99596.41;;;3.23;88.75
63552;BME280;49698;48.072;7.800;2022-12-07T08:56:46;99599.88;;;3.35;88.25
63552;BME280;49698;48.072;7.800;2022-12-07T08:59:17;99593.16;;;3.44;88.03
63552;BME280;49698;48.072;7.800;2022-12-07T09:01:47;99593.16;;;3.56;87.68
63552;BME280;49698;48.072;7.800;2022-12-07T09:04:16;99595.00;;;3.79;86.90
63552;BME280;49698;48.072;7.800;2022-12-07T09:06:44;99589.75;;;4.07;86.11
63552;BME280;49698;48.072;7.800;2022-12-07T09:09:13;99593.16;;;4.31;85.20
63552;BME280;49698;48.072;7.800;2022-12-07T09:11:41;99601.94;;;4.60;84.61
63552;BME280;49698;48.072;7.800;2022-12-07T09:14:11;99597.47;;;4.95;83.44
63552;BME280;49698;48.072;7.800;2022-12-07T09:16:40;99600.25;;;5.17;82.29
63552;BME280;49698;48.072;7.800;2022-12-07T09:19:08;99597.66;;;5.38;81.58
63552;BME280;49698;48.072;7.800;2022-12-07T09:21:37;99607.66;;;5.48;81.35
63552;BME280;49698;48.072;7.800;2022-12-07T09:24:07;99603.59;;;5.46;81.14
63552;BME280;49698;48.072;7.800;2022-12-07T09:26:35;99600.06;;;5.40;81.44
63552;BME280;49698;48.072;7.800;2022-12-07T09:29:06;99605.22;;;5.30;81.75
63552;BME280;49698;48.072;7.800;2022-12-07T09:31:36;99603.97;;;5.15;82.06
63552;BME280;49698;48.072;7.800;2022-12-07T09:34:05;99594.41;;;5.03;82.34
63552;BME280;49698;48.072;7.800;2022-12-07T09:36:33;99589.81;;;4.98;82.74
63552;BME280;49698;48.072;7.800;2022-12-07T09:39:03;99593.47;;;4.92;83.03
63552;BME280;49698;48.072;7.800;2022-12-07T09:41:32;99597.47;;;4.95;83.21
63552;BME280;49698;48.072;7.800;2022-12-07T09:44:04;99594.25;;;5.09;82.65
63552;BME280;49698;48.072;7.800;2022-12-07T09:46:35;99590.31;;;5.29;81.95
63552;BME280;49698;48.072;7.800;2022-12-07T09:49:05;99588.34;;;5.58;81.04
63552;BME280;49698;48.072;7.800;2022-12-07T09:51:33;99595.94;;;5.88;80.45
63552;BME280;49698;48.072;7.800;2022-12-07T09:54:03;99589.41;;;6.18;78.94
63552;BME280;49698;48.072;7.800;2022-12-07T09:56:31;99582.88;;;6.57;78.27
63552;BME280;49698;48.072;7.800;2022-12-07T09:59:01;99577.94;;;6.98;76.51
63552;BME280;49698;48.072;7.800;2022-12-07T10:01:30;99575.31;;;7.41;75.13
63552;BME280;49698;48.072;7.800;2022-12-07T10:04:05;99576.63;;;7.85;73.42
63552;BME280;49698;48.072;7.800;2022-12-07T10:06:37;99580.00;;;8.23;72.10
63552;BME280;49698;48.072;7.800;2022-12-07T10:09:10;99560.56;;;8.58;70.42
63552;BME280;49698;48.072;7.800;2022-12-07T10:11:57;99562.22;;;9.05;69.04
63552;BME280;49698;48.072;7.800;2022-12-07T10:14:27;99560.06;;;9.38;67.89
63552;BME280;49698;48.072;7.800;2022-12-07T10:17:30;99559.72;;;9.60;66.89
63552;BME280;49698;48.072;7.800;2022-12-07T10:20:26;99557.03;;;9.60;66.46
63552;BME280;49698;48.072;7.800;2022-12-07T10:22:57;99554.66;;;9.43;67.02
63552;BME280;49698;48.072;7.800;2022-12-07T10:25:28;99549.53;;;9.62;65.99
63552;BME280;49698;48.072;7.800;2022-12-07T10:28:13;99551.09;;;9.84;64.44
63552;BME280;49698;48.072;7.800;2022-12-07T10:30:50;99545.97;;;9.82;64.27
63552;BME280;49698;48.072;7.800;2022-12-07T10:33:33;99538.47;;;9.79;64.25
63552;BME280;49698;48.072;7.800;2022-12-07T10:36:17;99542.31;;;9.52;64.09
63552;BME280;49698;48.072;7.800;2022-12-07T10:38:48;99527.88;;;9.28;65.38
63552;BME280;49698;48.072;7.800;2022-12-07T10:41:18;99530.03;;;9.11;65.75
63552;BME280;49698;48.072;7.800;2022-12-07T10:43:48;99527.38;;;8.80;65.88
63552;BME280;49698;48.072;7.800;2022-12-07T10:46:41;99520.38;;;8.74;66.33
63552;BME280;49698;48.072;7.800;2022-12-07T10:52:28;99513.66;;;8.46;66.58
63552;BME280;49698;48.072;7.800;2022-12-07T10:55:08;99507.41;;;8.15;67.18
63552;BME280;49698;48.072;7.800;2022-12-07T10:57:55;99501.47;;;7.97;67.70
63552;BME280;49698;48.072;7.800;2022-12-07T11:00:25;99496.44;;;8.06;67.34
63552;BME280;49698;48.072;7.800;2022-12-07T11:03:23;99502.88;;;8.10;66.73
63552;BME280;49698;48.072;7.800;2022-12-07T11:06:05;99491.84;;;8.01;67.10
63552;BME280;49698;48.072;7.800;2022-12-07T11:08:47;99493.97;;;7.94;66.87
63552;BME280;49698;48.072;7.800;2022-12-07T11:11:26;99487.56;;;7.90;66.62
63552;BME280;49698;48.072;7.800;2022-12-07T11:14:05;99486.47;;;7.86;66.34
63552;BME280;49698;48.072;7.800;2022-12-07T11:16:49;99483.47;;;7.72;66.18
63552;BME280;49698;48.072;7.800;2022-12-07T11:19:39;99483.44;;;7.67;66.28
63552;BME280;49698;48.072;7.800;2022-12-07T11:22:17;99477.81;;;7.64;66.40
63552;BME280;49698;48.072;7.800;2022-12-07T11:24:52;99478.03;;;7.57;66.03
63552;BME280;49698;48.072;7.800;2022-12-07T11:27:30;99472.13;;;7.50;65.86
63552;BME280;49698;48.072;7.800;2022-12-07T11:30:12;99467.00;;;7.43;66.45
63552;BME280;49698;48.072;7.800;2022-12-07T11:33:09;99465.41;;;7.42;66.42
63552;BME280;49698;48.072;7.800;2022-12-07T11:35:51;99470.22;;;7.40;66.22
63552;BME280;49698;48.072;7.800;2022-12-07T11:38:26;99468.06;;;7.37;66.12
63552;BME280;49698;48.072;7.800;2022-12-07T11:41:01;99471.22;;;7.29;65.96
63552;BME280;49698;48.072;7.800;2022-12-07T11:43:50;99465.81;;;7.19;65.93
63552;BME280;49698;48.072;7.800;2022-12-07T11:46:24;99463.63;;;7.10;65.87
63552;BME280;49698;48.072;7.800;2022-12-07T11:48:54;99455.88;;;7.09;65.95
63552;BME280;49698;48.072;7.800;2022-12-07T11:51:28;99455.06;;;7.08;65.45
63552;BME280;49698;48.072;7.800;2022-12-07T11:53:59;99448.16;;;7.13;65.51
63552;BME280;49698;48.072;7.800;2022-12-07T11:56:30;99456.44;;;7.16;65.01
63552;BME280;49698;48.072;7.800;2022-12-07T11:59:04;99449.25;;;7.17;64.77
63552;BME280;49698;48.072;7.800;2022-12-07T12:01:46;99445.47;;;7.13;64.90
63552;BME280;49698;48.072;7.800;2022-12-07T12:04:25;99444.94;;;7.16;64.71
63552;BME280;49698;48.072;7.800;2022-12-07T12:06:56;99435.09;;;7.21;64.32
63552;BME280;49698;48.072;7.800;2022-12-07T12:09:49;99438.34;;;7.28;64.34
63552;BME280;49698;48.072;7.800;2022-12-07T12:12:43;99437.25;;;7.24;63.77
63552;BME280;49698;48.072;7.800;2022-12-07T12:15:46;99432.13;;;7.18;63.74
63552;BME280;49698;48.072;7.800;2022-12-07T12:18:36;99424.09;;;7.13;63.51
63552;BME280;49698;48.072;7.800;2022-12-07T12:21:09;99422.72;;;7.10;62.93
63552;BME280;49698;48.072;7.800;2022-12-07T12:23:41;99420.28;;;7.03;62.62
63552;BME280;49698;48.072;7.800;2022-12-07T12:26:16;99413.84;;;6.99;62.48
63552;BME280;49698;48.072;7.800;2022-12-07T12:28:52;99408.50;;;6.99;61.84
63552;BME280;49698;48.072;7.800;2022-12-07T12:31:36;99401.81;;;6.97;61.33
63552;BME280;49698;48.072;7.800;2022-12-07T12:37:42;99400.47;;;6.94;61.01
63552;BME280;49698;48.072;7.800;2022-12-07T12:40:43;99401.56;;;6.98;60.75
63552;BME280;49698;48.072;7.800;2022-12-07T12:43:41;99403.66;;;6.96;60.74
63552;BME280;49698;48.072;7.800;2022-12-07T12:46:37;99397.53;;;6.96;60.34
63552;BME280;49698;48.072;7.800;2022-12-07T12:49:40;99395.16;;;6.99;60.18
63552;BME280;49698;48.072;7.800;2022-12-07T12:55:20;99390.31;;;6.96;59.79
63552;BME280;49698;48.072;7.800;2022-12-07T13:03:56;99378.50;;;6.87;59.55
63552;BME280;49698;48.072;7.800;2022-12-07T13:06:35;99378.22;;;6.83;59.30
63552;BME280;49698;48.072;7.800;2022-12-07T13:09:18;99389.94;;;6.77;59.82
63552;BME280;49698;48.072;7.800;2022-12-07T13:11:50;99380.59;;;6.75;59.85
63552;BME280;49698;48.072;7.800;2022-12-07T13:14:43;99381.09;;;6.72;60.19
63552;BME280;49698;48.072;7.800;2022-12-07T13:20:45;99376.81;;;6.71;60.52
63552;BME280;49698;48.072;7.800;2022-12-07T13:23:18;99376.25;;;6.69;60.32
63552;BME280;49698;48.072;7.800;2022-12-07T13:26:12;99367.94;;;6.65;60.33
63552;BME280;49698;48.072;7.800;2022-12-07T13:28:46;99375.66;;;6.61;59.95
63552;BME280;49698;48.072;7.800;2022-12-07T13:31:30;99363.38;;;6.60;59.85
63552;BME280;49698;48.072;7.800;2022-12-07T13:34:01;99365.22;;;6.55;59.68
63552;BME280;49698;48.072;7.800;2022-12-07T13:36:31;99365.44;;;6.48;59.62
63552;BME280;49698;48.072;7.800;2022-12-07T13:39:16;99358.22;;;6.44;59.82
63552;BME280;49698;48.072;7.800;2022-12-07T13:41:49;99358.97;;;6.39;60.27
63552;BME280;49698;48.072;7.800;2022-12-07T13:44:20;99357.88;;;6.35;60.54
63552;BME280;49698;48.072;7.800;2022-12-07T13:46:59;99353.59;;;6.34;60.93
63552;BME280;49698;48.072;7.800;2022-12-07T13:49:30;99350.38;;;6.32;61.34
63552;BME280;49698;48.072;7.800;2022-12-07T13:52:14;99361.28;;;6.25;61.73
63552;BME280;49698;48.072;7.800;2022-12-07T13:54:47;99352.94;;;6.17;62.50
63552;BME280;49698;48.072;7.800;2022-12-07T13:57:16;99350.19;;;6.11;62.77
63552;BME280;49698;48.072;7.800;2022-12-07T13:59:46;99354.44;;;6.07;62.75
63552;BME280;49698;48.072;7.800;2022-12-07T14:02:19;99344.00;;;6.01;63.56